sensor_id;sensor_type;location;lat;lon;timestamp;pressure;altitude;pressure_sealevel;temperature
42119;BMP280;27783;42.782;23.274;2023-03-07T00:02:25;94732.09;;;7.95
42119;BMP280;27783;42.782;23.274;2023-03-07T00:04:50;94732.44;;;8.04
42119;BMP280;27783;42.782;23.274;2023-03-07T00:07:16;94734.06;;;8.44
42119;BMP280;27783;42.782;23.274;2023-03-07T00:09:41;94731.25;;;8.18
42119;BMP280;27783;42.782;23.274;2023-03-07T00:12:07;94728.19;;;8.23
42119;BMP280;27783;42.782;23.274;2023-03-07T00:14:33;94723.44;;;8.08
42119;BMP280;27783;42.782;23.274;2023-03-07T00:16:58;94717.47;;;8.04
42119;BMP280;27783;42.782;23.274;2023-03-07T00:19:24;94729.84;;;8.00
42119;BMP280;27783;42.782;23.274;2023-03-07T00:21:49;94718.97;;;8.05
42119;BMP280;27783;42.782;23.274;2023-03-07T00:24:15;94716.72;;;7.94
42119;BMP280;27783;42.782;23.274;2023-03-07T00:26:40;94720.50;;;7.93
42119;BMP280;27783;42.782;23.274;2023-03-07T00:29:07;94715.28;;;7.89
42119;BMP280;27783;42.782;23.274;2023-03-07T00:31:34;94709.63;;;7.98
42119;BMP280;27783;42.782;23.274;2023-03-07T00:34:00;94716.03;;;7.90
42119;BMP280;27783;42.782;23.274;2023-03-07T00:36:25;94713.47;;;7.80
42119;BMP280;27783;42.782;23.274;2023-03-07T00:38:51;94706.69;;;7.85
42119;BMP280;27783;42.782;23.274;2023-03-07T00:41:18;94706.34;;;7.80
42119;BMP280;27783;42.782;23.274;2023-03-07T00:43:43;94711.53;;;7.87
42119;BMP280;27783;42.782;23.274;2023-03-07T00:46:13;94704.47;;;7.74
42119;BMP280;27783;42.782;23.274;2023-03-07T00:48:39;94709.00;;;7.73
42119;BMP280;27783;42.782;23.274;2023-03-07T00:51:06;94697.38;;;7.71
42119;BMP280;27783;42.782;23.274;2023-03-07T00:53:32;94695.91;;;7.70
42119;BMP280;27783;42.782;23.274;2023-03-07T00:56:00;94696.25;;;7.72
42119;BMP280;27783;42.782;23.274;2023-03-07T00:58:26;94692.50;;;7.73
42119;BMP280;27783;42.782;23.274;2023-03-07T01:00:52;94682.34;;;7.82
42119;BMP280;27783;42.782;23.274;2023-03-07T01:03:18;94691.28;;;7.87
42119;BMP280;27783;42.782;23.274;2023-03-07T01:05:44;94677.78;;;7.92
42119;BMP280;27783;42.782;23.274;2023-03-07T01:08:10;94671.03;;;7.91
42119;BMP280;27783;42.782;23.274;2023-03-07T01:10:35;94672.50;;;8.02
42119;BMP280;27783;42.782;23.274;2023-03-07T01:13:01;94674.69;;;8.11
42119;BMP280;27783;42.782;23.274;2023-03-07T01:15:26;94663.66;;;8.32
42119;BMP280;27783;42.782;23.274;2023-03-07T01:17:52;94674.59;;;8.24
42119;BMP280;27783;42.782;23.274;2023-03-07T01:20:17;94665.34;;;8.10
42119;BMP280;27783;42.782;23.274;2023-03-07T01:22:43;94663.16;;;7.98
42119;BMP280;27783;42.782;23.274;2023-03-07T01:25:09;94666.53;;;7.99
42119;BMP280;27783;42.782;23.274;2023-03-07T01:27:34;94663.50;;;8.00
42119;BMP280;27783;42.782;23.274;2023-03-07T01:30:00;94656.03;;;7.99
42119;BMP280;27783;42.782;23.274;2023-03-07T01:32:25;94651.50;;;8.02
42119;BMP280;27783;42.782;23.274;2023-03-07T01:34:51;94658.25;;;8.00
42119;BMP280;27783;42.782;23.274;2023-03-07T01:37:16;94663.13;;;8.01
42119;BMP280;27783;42.782;23.274;2023-03-07T01:39:43;94656.75;;;8.06
42119;BMP280;27783;42.782;23.274;2023-03-07T01:42:08;94654.44;;;8.11
42119;BMP280;27783;42.782;23.274;2023-03-07T01:47:22;94648.75;;;8.19
42119;BMP280;27783;42.782;23.274;2023-03-07T01:49:47;94645.41;;;8.19
42119;BMP280;27783;42.782;23.274;2023-03-07T01:52:25;94654.72;;;8.20
42119;BMP280;27783;42.782;23.274;2023-03-07T01:54:58;94644.63;;;8.22
42119;BMP280;27783;42.782;23.274;2023-03-07T01:57:30;94642.25;;;8.34
42119;BMP280;27783;42.782;23.274;2023-03-07T01:59:59;94636.59;;;8.39
42119;BMP280;27783;42.782;23.274;2023-03-07T02:02:26;94637.66;;;8.45
42119;BMP280;27783;42.782;23.274;2023-03-07T02:07:24;94643.63;;;8.49
42119;BMP280;27783;42.782;23.274;2023-03-07T02:09:52;94647.06;;;8.42
42119;BMP280;27783;42.782;23.274;2023-03-07T02:12:18;94653.41;;;8.45
42119;BMP280;27783;42.782;23.274;2023-03-07T02:14:45;94641.81;;;8.42
42119;BMP280;27783;42.782;23.274;2023-03-07T02:17:11;94641.41;;;8.44
42119;BMP280;27783;42.782;23.274;2023-03-07T02:19:50;94646.69;;;8.40
42119;BMP280;27783;42.782;23.274;2023-03-07T02:22:18;94648.94;;;8.42
42119;BMP280;27783;42.782;23.274;2023-03-07T02:24:55;94646.72;;;8.37
42119;BMP280;27783;42.782;23.274;2023-03-07T02:27:23;94649.81;;;8.29
42119;BMP280;27783;42.782;23.274;2023-03-07T02:29:50;94652.00;;;8.33
42119;BMP280;27783;42.782;23.274;2023-03-07T02:32:15;94642.19;;;8.41
42119;BMP280;27783;42.782;23.274;2023-03-07T02:34:41;94648.56;;;8.40
42119;BMP280;27783;42.782;23.274;2023-03-07T02:37:13;94647.38;;;8.48
42119;BMP280;27783;42.782;23.274;2023-03-07T02:39:41;94652.97;;;8.53
42119;BMP280;27783;42.782;23.274;2023-03-07T02:42:11;94651.47;;;8.52
42119;BMP280;27783;42.782;23.274;2023-03-07T02:44:38;94650.25;;;8.60
42119;BMP280;27783;42.782;23.274;2023-03-07T02:47:03;94648.06;;;8.58
42119;BMP280;27783;42.782;23.274;2023-03-07T02:49:33;94646.09;;;8.66
42119;BMP280;27783;42.782;23.274;2023-03-07T02:51:58;94649.09;;;8.64
42119;BMP280;27783;42.782;23.274;2023-03-07T02:54:25;94649.44;;;8.69
42119;BMP280;27783;42.782;23.274;2023-03-07T02:56:51;94650.97;;;8.67
42119;BMP280;27783;42.782;23.274;2023-03-07T02:59:16;94646.38;;;8.74
42119;BMP280;27783;42.782;23.274;2023-03-07T03:01:41;94645.72;;;8.64
42119;BMP280;27783;42.782;23.274;2023-03-07T03:04:07;94656.59;;;8.69
42119;BMP280;27783;42.782;23.274;2023-03-07T03:06:32;94648.66;;;8.72
42119;BMP280;27783;42.782;23.274;2023-03-07T03:08:57;94646.38;;;8.74
42119;BMP280;27783;42.782;23.274;2023-03-07T03:11:23;94650.84;;;8.77
42119;BMP280;27783;42.782;23.274;2023-03-07T03:13:48;94643.41;;;8.72
42119;BMP280;27783;42.782;23.274;2023-03-07T03:16:14;94639.53;;;8.83
42119;BMP280;27783;42.782;23.274;2023-03-07T03:18:39;94638.72;;;8.90
42119;BMP280;27783;42.782;23.274;2023-03-07T03:21:09;94638.78;;;8.83
42119;BMP280;27783;42.782;23.274;2023-03-07T03:23:34;94636.16;;;8.83
42119;BMP280;27783;42.782;23.274;2023-03-07T03:26:03;94635.44;;;8.79
42119;BMP280;27783;42.782;23.274;2023-03-07T03:28:30;94637.63;;;8.87
42119;BMP280;27783;42.782;23.274;2023-03-07T03:31:00;94636.09;;;8.90
42119;BMP280;27783;42.782;23.274;2023-03-07T03:33:26;94644.38;;;8.88
42119;BMP280;27783;42.782;23.274;2023-03-07T03:35:54;94648.50;;;8.86
42119;BMP280;27783;42.782;23.274;2023-03-07T03:38:19;94644.72;;;8.90
42119;BMP280;27783;42.782;23.274;2023-03-07T03:40:45;94638.06;;;8.79
42119;BMP280;27783;42.782;23.274;2023-03-07T03:43:10;94651.91;;;8.83
42119;BMP280;27783;42.782;23.274;2023-03-07T03:45:36;94647.88;;;8.75
42119;BMP280;27783;42.782;23.274;2023-03-07T03:48:01;94647.88;;;8.75
42119;BMP280;27783;42.782;23.274;2023-03-07T03:50:26;94649.44;;;8.69
42119;BMP280;27783;42.782;23.274;2023-03-07T03:52:52;94647.59;;;8.63
42119;BMP280;27783;42.782;23.274;2023-03-07T03:55:17;94652.94;;;8.56
42119;BMP280;27783;42.782;23.274;2023-03-07T03:57:42;94646.88;;;8.16
42119;BMP280;27783;42.782;23.274;2023-03-07T04:00:08;94645.41;;;8.19
42119;BMP280;27783;42.782;23.274;2023-03-07T04:02:35;94649.94;;;8.12
42119;BMP280;27783;42.782;23.274;2023-03-07T04:05:00;94649.22;;;8.08
42119;BMP280;27783;42.782;23.274;2023-03-07T04:07:27;94650.72;;;8.09
42119;BMP280;27783;42.782;23.274;2023-03-07T04:09:53;94657.47;;;8.10
42119;BMP280;27783;42.782;23.274;2023-03-07T04:12:19;94658.66;;;7.95
42119;BMP280;27783;42.782;23.274;2023-03-07T04:14:44;94654.53;;;7.98
42119;BMP280;27783;42.782;23.274;2023-03-07T04:17:09;94661.28;;;7.95
42119;BMP280;27783;42.782;23.274;2023-03-07T04:19:35;94659.72;;;8.08
42119;BMP280;27783;42.782;23.274;2023-03-07T04:22:00;94657.09;;;8.04
42119;BMP280;27783;42.782;23.274;2023-03-07T04:24:25;94657.50;;;8.06
42119;BMP280;27783;42.782;23.274;2023-03-07T04:26:51;94661.22;;;8.09
42119;BMP280;27783;42.782;23.274;2023-03-07T04:29:16;94651.75;;;8.18
42119;BMP280;27783;42.782;23.274;2023-03-07T04:31:42;94659.63;;;8.18
42119;BMP280;27783;42.782;23.274;2023-03-07T04:34:07;94657.75;;;8.18
42119;BMP280;27783;42.782;23.274;2023-03-07T04:36:32;94663.34;;;8.24
42119;BMP280;27783;42.782;23.274;2023-03-07T04:38:58;94666.34;;;8.26
42119;BMP280;27783;42.782;23.274;2023-03-07T04:41:24;94669.00;;;8.19
42119;BMP280;27783;42.782;23.274;2023-03-07T04:43:53;94663.34;;;8.20
42119;BMP280;27783;42.782;23.274;2023-03-07T04:46:18;94661.94;;;8.13
42119;BMP280;27783;42.782;23.274;2023-03-07T04:48:45;94668.69;;;8.10
42119;BMP280;27783;42.782;23.274;2023-03-07T04:51:11;94674.69;;;8.11
42119;BMP280;27783;42.782;23.274;2023-03-07T04:53:37;94667.97;;;8.10
42119;BMP280;27783;42.782;23.274;2023-03-07T04:56:04;94676.19;;;8.12
42119;BMP280;27783;42.782;23.274;2023-03-07T04:58:30;94669.38;;;8.17
42119;BMP280;27783;42.782;23.274;2023-03-07T05:00:56;94670.94;;;8.12
42119;BMP280;27783;42.782;23.274;2023-03-07T05:03:23;94670.59;;;8.06
42119;BMP280;27783;42.782;23.274;2023-03-07T05:05:49;94672.06;;;8.07
42119;BMP280;27783;42.782;23.274;2023-03-07T05:08:14;94665.81;;;8.41
42119;BMP280;27783;42.782;23.274;2023-03-07T05:10:39;94676.88;;;8.65
42119;BMP280;27783;42.782;23.274;2023-03-07T05:13:06;94668.03;;;8.49
42119;BMP280;27783;42.782;23.274;2023-03-07T05:15:33;94670.69;;;8.46
42119;BMP280;27783;42.782;23.274;2023-03-07T05:17:58;94672.94;;;8.40
42119;BMP280;27783;42.782;23.274;2023-03-07T05:20:24;94673.31;;;8.42
42119;BMP280;27783;42.782;23.274;2023-03-07T05:22:49;94672.19;;;8.40
42119;BMP280;27783;42.782;23.274;2023-03-07T05:25:15;94679.22;;;8.53
42119;BMP280;27783;42.782;23.274;2023-03-07T05:27:40;94676.56;;;8.07
42119;BMP280;27783;42.782;23.274;2023-03-07T05:30:06;94693.13;;;7.94
42119;BMP280;27783;42.782;23.274;2023-03-07T05:32:32;94679.31;;;7.90
42119;BMP280;27783;42.782;23.274;2023-03-07T05:34:57;94683.78;;;7.99
42119;BMP280;27783;42.782;23.274;2023-03-07T05:37:23;94676.28;;;7.91
42119;BMP280;27783;42.782;23.274;2023-03-07T05:39:48;94692.72;;;8.05
42119;BMP280;27783;42.782;23.274;2023-03-07T05:42:14;94688.13;;;8.19
42119;BMP280;27783;42.782;23.274;2023-03-07T05:44:40;94698.47;;;8.36
42119;BMP280;27783;42.782;23.274;2023-03-07T05:47:05;94695.00;;;8.49
42119;BMP280;27783;42.782;23.274;2023-03-07T05:49:31;94694.53;;;8.61
42119;BMP280;27783;42.782;23.274;2023-03-07T05:51:56;94690.75;;;8.66
42119;BMP280;27783;42.782;23.274;2023-03-07T05:54:21;94692.09;;;8.80
42119;BMP280;27783;42.782;23.274;2023-03-07T05:56:47;94699.94;;;8.87
42119;BMP280;27783;42.782;23.274;2023-03-07T05:59:12;94694.94;;;8.96
42119;BMP280;27783;42.782;23.274;2023-03-07T06:01:40;94699.06;;;8.97
42119;BMP280;27783;42.782;23.274;2023-03-07T06:04:06;94702.13;;;8.92
42119;BMP280;27783;42.782;23.274;2023-03-07T06:06:31;94708.69;;;9.10
42119;BMP280;27783;42.782;23.274;2023-03-07T06:08:57;94705.34;;;9.06
42119;BMP280;27783;42.782;23.274;2023-03-07T06:11:22;94705.34;;;9.06
42119;BMP280;27783;42.782;23.274;2023-03-07T06:13:47;94705.44;;;8.99
42119;BMP280;27783;42.782;23.274;2023-03-07T06:16:13;94705.22;;;9.19
42119;BMP280;27783;42.782;23.274;2023-03-07T06:18:38;94704.50;;;9.15
42119;BMP280;27783;42.782;23.274;2023-03-07T07:53:43;94736.59;;;11.20
42119;BMP280;27783;42.782;23.274;2023-03-07T07:56:08;94735.13;;;11.19
42119;BMP280;27783;42.782;23.274;2023-03-07T07:58:34;94738.06;;;11.43
42119;BMP280;27783;42.782;23.274;2023-03-07T08:00:59;94742.16;;;11.48
42119;BMP280;27783;42.782;23.274;2023-03-07T08:03:25;94735.31;;;11.69
42119;BMP280;27783;42.782;23.274;2023-03-07T08:05:51;94740.41;;;11.60
42119;BMP280;27783;42.782;23.274;2023-03-07T08:08:18;94744.38;;;11.49
42119;BMP280;27783;42.782;23.274;2023-03-07T08:10:47;94746.28;;;11.49
42119;BMP280;27783;42.782;23.274;2023-03-07T08:13:13;94748.56;;;11.47
42119;BMP280;27783;42.782;23.274;2023-03-07T08:15:39;94736.50;;;11.46
42119;BMP280;27783;42.782;23.274;2023-03-07T08:18:05;94741.59;;;11.56
42119;BMP280;27783;42.782;23.274;2023-03-07T08:20:30;94749.88;;;11.58
42119;BMP280;27783;42.782;23.274;2023-03-07T08:22:56;94736.06;;;11.69
42119;BMP280;27783;42.782;23.274;2023-03-07T08:25:23;94747.97;;;11.77
42119;BMP280;27783;42.782;23.274;2023-03-07T08:27:49;94738.72;;;11.88
42119;BMP280;27783;42.782;23.274;2023-03-07T08:30:22;94742.53;;;12.03
42119;BMP280;27783;42.782;23.274;2023-03-07T08:32:52;94742.81;;;11.89
42119;BMP280;27783;42.782;23.274;2023-03-07T08:35:18;94738.25;;;12.09
42119;BMP280;27783;42.782;23.274;2023-03-07T08:37:44;94741.47;;;12.35
42119;BMP280;27783;42.782;23.274;2023-03-07T08:40:10;94735.66;;;12.59
42119;BMP280;27783;42.782;23.274;2023-03-07T08:42:35;94739.25;;;12.83
42119;BMP280;27783;42.782;23.274;2023-03-07T08:45:01;94732.47;;;12.83
42119;BMP280;27783;42.782;23.274;2023-03-07T08:47:26;94739.31;;;13.11
42119;BMP280;27783;42.782;23.274;2023-03-07T08:49:52;94729.81;;;13.41
42119;BMP280;27783;42.782;23.274;2023-03-07T08:52:17;94728.84;;;14.18
42119;BMP280;27783;42.782;23.274;2023-03-07T08:54:43;94713.63;;;15.16
42119;BMP280;27783;42.782;23.274;2023-03-07T08:57:08;94712.81;;;14.95
42119;BMP280;27783;42.782;23.274;2023-03-07T08:59:33;94717.94;;;14.89
42119;BMP280;27783;42.782;23.274;2023-03-07T09:01:59;94709.19;;;15.13
42119;BMP280;27783;42.782;23.274;2023-03-07T09:04:24;94714.06;;;15.15
42119;BMP280;27783;42.782;23.274;2023-03-07T09:06:49;94714.94;;;14.87
42119;BMP280;27783;42.782;23.274;2023-03-07T09:09:15;94699.97;;;15.05
42119;BMP280;27783;42.782;23.274;2023-03-07T09:11:40;94711.94;;;14.13
42119;BMP280;27783;42.782;23.274;2023-03-07T09:14:06;94712.94;;;14.67
42119;BMP280;27783;42.782;23.274;2023-03-07T09:16:31;94706.78;;;14.70
42119;BMP280;27783;42.782;23.274;2023-03-07T09:18:56;94707.16;;;15.17
42119;BMP280;27783;42.782;23.274;2023-03-07T09:21:22;94699.03;;;15.33
42119;BMP280;27783;42.782;23.274;2023-03-07T09:23:47;94702.91;;;15.52
42119;BMP280;27783;42.782;23.274;2023-03-07T09:26:13;94701.53;;;15.48
42119;BMP280;27783;42.782;23.274;2023-03-07T09:28:38;94704.25;;;15.78
42119;BMP280;27783;42.782;23.274;2023-03-07T09:31:08;94694.19;;;15.73
42119;BMP280;27783;42.782;23.274;2023-03-07T09:33:34;94692.78;;;16.22
42119;BMP280;27783;42.782;23.274;2023-03-07T09:36:03;94690.72;;;16.65
42119;BMP280;27783;42.782;23.274;2023-03-07T09:38:29;94679.38;;;16.05
42119;BMP280;27783;42.782;23.274;2023-03-07T09:40:55;94677.97;;;15.92
42119;BMP280;27783;42.782;23.274;2023-03-07T09:43:25;94675.09;;;15.12
42119;BMP280;27783;42.782;23.274;2023-03-07T09:49:20;94675.97;;;15.63
42119;BMP280;27783;42.782;23.274;2023-03-07T09:51:51;94667.31;;;16.89
42119;BMP280;27783;42.782;23.274;2023-03-07T09:54:21;94660.88;;;16.61
42119;BMP280;27783;42.782;23.274;2023-03-07T09:56:51;94657.19;;;16.76
42119;BMP280;27783;42.782;23.274;2023-03-07T09:59:34;94652.72;;;16.55
42119;BMP280;27783;42.782;23.274;2023-03-07T10:04:54;94651.53;;;16.56
42119;BMP280;27783;42.782;23.274;2023-03-07T10:07:24;94646.22;;;16.56
42119;BMP280;27783;42.782;23.274;2023-03-07T10:10:03;94644.44;;;16.53
42119;BMP280;27783;42.782;23.274;2023-03-07T10:13:01;94641.09;;;16.79
42119;BMP280;27783;42.782;23.274;2023-03-07T10:23:27;94618.41;;;17.39
42119;BMP280;27783;42.782;23.274;2023-03-07T10:26:33;94617.06;;;17.09
42119;BMP280;27783;42.782;23.274;2023-03-07T10:29:07;94603.25;;;17.89
42119;BMP280;27783;42.782;23.274;2023-03-07T10:31:37;94606.81;;;17.68
42119;BMP280;27783;42.782;23.274;2023-03-07T10:34:26;94602.88;;;17.38
42119;BMP280;27783;42.782;23.274;2023-03-07T10:36:53;94595.50;;;16.51
42119;BMP280;27783;42.782;23.274;2023-03-07T10:39:26;94592.53;;;17.14
42119;BMP280;27783;42.782;23.274;2023-03-07T10:41:54;94588.63;;;16.80
42119;BMP280;27783;42.782;23.274;2023-03-07T10:44:20;94593.41;;;15.99
42119;BMP280;27783;42.782;23.274;2023-03-07T10:46:50;94591.00;;;16.22
42119;BMP280;27783;42.782;23.274;2023-03-07T10:49:22;94576.94;;;16.13
42119;BMP280;27783;42.782;23.274;2023-03-07T10:54:42;94560.50;;;17.66
42119;BMP280;27783;42.782;23.274;2023-03-07T10:57:17;94554.31;;;17.43
42119;BMP280;27783;42.782;23.274;2023-03-07T10:59:45;94551.59;;;17.69
42119;BMP280;27783;42.782;23.274;2023-03-07T11:05:08;94541.56;;;16.59
42119;BMP280;27783;42.782;23.274;2023-03-07T11:07:42;94537.47;;;16.84
42119;BMP280;27783;42.782;23.274;2023-03-07T11:10:34;94535.50;;;17.64
42119;BMP280;27783;42.782;23.274;2023-03-07T11:13:06;94526.25;;;16.89
42119;BMP280;27783;42.782;23.274;2023-03-07T11:15:37;94517.91;;;17.49
42119;BMP280;27783;42.782;23.274;2023-03-07T11:18:02;94524.78;;;16.88
42119;BMP280;27783;42.782;23.274;2023-03-07T11:20:32;94524.94;;;16.12
42119;BMP280;27783;42.782;23.274;2023-03-07T11:23:19;94517.03;;;17.43
42119;BMP280;27783;42.782;23.274;2023-03-07T11:25:47;94519.94;;;17.62
42119;BMP280;27783;42.782;23.274;2023-03-07T11:28:34;94511.97;;;17.53
42119;BMP280;27783;42.782;23.274;2023-03-07T11:31:14;94514.69;;;16.49
42119;BMP280;27783;42.782;23.274;2023-03-07T11:36:25;94507.38;;;17.54
42119;BMP280;27783;42.782;23.274;2023-03-07T11:39:19;94492.47;;;18.19
42119;BMP280;27783;42.782;23.274;2023-03-07T11:41:56;94498.72;;;17.18
42119;BMP280;27783;42.782;23.274;2023-03-07T11:44:43;94494.59;;;16.74
42119;BMP280;27783;42.782;23.274;2023-03-07T12:03:38;94475.06;;;16.51
42119;BMP280;27783;42.782;23.274;2023-03-07T12:06:09;94472.28;;;16.45
42119;BMP280;27783;42.782;23.274;2023-03-07T12:11:26;94460.88;;;16.80
42119;BMP280;27783;42.782;23.274;2023-03-07T12:14:26;94450.00;;;17.76
42119;BMP280;27783;42.782;23.274;2023-03-07T12:22:49;94448.63;;;16.65
42119;BMP280;27783;42.782;23.274;2023-03-07T12:25:26;94453.19;;;17.08
42119;BMP280;27783;42.782;23.274;2023-03-07T12:27:58;94445.09;;;17.43
42119;BMP280;27783;42.782;23.274;2023-03-07T12:33:05;94451.34;;;17.71
42119;BMP280;27783;42.782;23.274;2023-03-07T12:35:55;94441.06;;;18.42
42119;BMP280;27783;42.782;23.274;2023-03-07T12:38:43;94445.47;;;17.68
42119;BMP280;27783;42.782;23.274;2023-03-07T12:41:21;94444.56;;;17.30
42119;BMP280;27783;42.782;23.274;2023-03-07T12:43:53;94431.91;;;18.11
42119;BMP280;27783;42.782;23.274;2023-03-07T12:46:37;94434.88;;;17.50
42119;BMP280;27783;42.782;23.274;2023-03-07T12:49:14;94434.19;;;17.72
42119;BMP280;27783;42.782;23.274;2023-03-07T12:51:48;94430.59;;;17.44
42119;BMP280;27783;42.782;23.274;2023-03-07T12:54:34;94439.88;;;16.73
42119;BMP280;27783;42.782;23.274;2023-03-07T12:57:10;94427.19;;;16.77
42119;BMP280;27783;42.782;23.274;2023-03-07T12:59:39;94439.91;;;16.47
42119;BMP280;27783;42.782;23.274;2023-03-07T13:02:15;94424.81;;;16.61
42119;BMP280;27783;42.782;23.274;2023-03-07T13:04:43;94427.50;;;16.52
42119;BMP280;27783;42.782;23.274;2023-03-07T13:09:44;94421.88;;;16.16
42119;BMP280;27783;42.782;23.274;2023-03-07T13:20:09;94421.41;;;16.87
42119;BMP280;27783;42.782;23.274;2023-03-07T13:27:46;94436.34;;;16.32
42119;BMP280;27783;42.782;23.274;2023-03-07T13:45:52;94435.31;;;16.21
42119;BMP280;27783;42.782;23.274;2023-03-07T13:53:32;94437.69;;;15.81
42119;BMP280;27783;42.782;23.274;2023-03-07T14:01:20;94435.44;;;15.70
42119;BMP280;27783;42.782;23.274;2023-03-07T14:04:01;94429.72;;;15.81
42119;BMP280;27783;42.782;23.274;2023-03-07T14:06:47;94439.44;;;15.66
42119;BMP280;27783;42.782;23.274;2023-03-07T14:09:27;94441.94;;;16.08
42119;BMP280;27783;42.782;23.274;2023-03-07T14:26:36;94439.19;;;15.82
42119;BMP280;27783;42.782;23.274;2023-03-07T14:29:17;94444.81;;;15.45
42119;BMP280;27783;42.782;23.274;2023-03-07T14:31:47;94442.53;;;15.65
42119;BMP280;27783;42.782;23.274;2023-03-07T14:34:33;94449.72;;;15.55
42119;BMP280;27783;42.782;23.274;2023-03-07T14:37:11;94446.81;;;15.62
42119;BMP280;27783;42.782;23.274;2023-03-07T14:42:47;94451.13;;;15.39
42119;BMP280;27783;42.782;23.274;2023-03-07T14:50:40;94437.09;;;15.30
42119;BMP280;27783;42.782;23.274;2023-03-07T14:53:15;94438.59;;;15.39
42119;BMP280;27783;42.782;23.274;2023-03-07T14:55:44;94442.91;;;15.46
42119;BMP280;27783;42.782;23.274;2023-03-07T14:58:16;94437.19;;;15.56
42119;BMP280;27783;42.782;23.274;2023-03-07T15:00:43;94439.34;;;15.40
42119;BMP280;27783;42.782;23.274;2023-03-07T15:03:11;94431.25;;;15.43
42119;BMP280;27783;42.782;23.274;2023-03-07T15:08:02;94440.66;;;15.44
42119;BMP280;27783;42.782;23.274;2023-03-07T15:10:42;94441.94;;;15.31
42119;BMP280;27783;42.782;23.274;2023-03-07T15:13:25;94448.97;;;15.17
42119;BMP280;27783;42.782;23.274;2023-03-07T15:19:08;94442.06;;;14.98
42119;BMP280;27783;42.782;23.274;2023-03-07T15:21:39;94436.47;;;14.96
42119;BMP280;27783;42.782;23.274;2023-03-07T15:24:16;94439.03;;;14.87
42119;BMP280;27783;42.782;23.274;2023-03-07T15:26:53;94438.72;;;14.85
42119;BMP280;27783;42.782;23.274;2023-03-07T15:29:23;94442.06;;;14.77
42119;BMP280;27783;42.782;23.274;2023-03-07T15:31:55;94439.94;;;14.72
42119;BMP280;27783;42.782;23.274;2023-03-07T15:34:37;94440.41;;;14.71
42119;BMP280;27783;42.782;23.274;2023-03-07T15:37:24;94437.06;;;14.58
42119;BMP280;27783;42.782;23.274;2023-03-07T15:39:57;94440.09;;;14.48
42119;BMP280;27783;42.782;23.274;2023-03-07T15:42:24;94427.19;;;14.59
42119;BMP280;27783;42.782;23.274;2023-03-07T15:45:01;94436.88;;;14.53
42119;BMP280;27783;42.782;23.274;2023-03-07T15:47:39;94431.25;;;14.51
42119;BMP280;27783;42.782;23.274;2023-03-07T15:50:05;94435.31;;;14.43
42119;BMP280;27783;42.782;23.274;2023-03-07T15:52:52;94433.47;;;14.32
42119;BMP280;27783;42.782;23.274;2023-03-07T15:55:39;94432.28;;;14.33
42119;BMP280;27783;42.782;23.274;2023-03-07T15:58:12;94438.78;;;14.32
42119;BMP280;27783;42.782;23.274;2023-03-07T16:00:41;94444.94;;;14.29
42119;BMP280;27783;42.782;23.274;2023-03-07T16:03:28;94445.88;;;14.22
42119;BMP280;27783;42.782;23.274;2023-03-07T16:05:55;94450.25;;;14.17
42119;BMP280;27783;42.782;23.274;2023-03-07T16:08:21;94457.91;;;14.15
42119;BMP280;27783;42.782;23.274;2023-03-07T16:10:49;94450.19;;;14.08
42119;BMP280;27783;42.782;23.274;2023-03-07T16:13:33;94459.31;;;13.95
42119;BMP280;27783;42.782;23.274;2023-03-07T16:18:37;94462.72;;;13.71
42119;BMP280;27783;42.782;23.274;2023-03-07T16:21:04;94466.66;;;13.79
42119;BMP280;27783;42.782;23.274;2023-03-07T16:23:31;94464.63;;;13.70
42119;BMP280;27783;42.782;23.274;2023-03-07T16:26:03;94463.75;;;13.73
42119;BMP280;27783;42.782;23.274;2023-03-07T16:28:35;94472.13;;;13.60
42119;BMP280;27783;42.782;23.274;2023-03-07T16:31:01;94480.41;;;13.50
42119;BMP280;27783;42.782;23.274;2023-03-07T16:33:28;94482.72;;;13.35
42119;BMP280;27783;42.782;23.274;2023-03-07T16:35:59;94477.75;;;13.25
42119;BMP280;27783;42.782;23.274;2023-03-07T16:38:24;94477.75;;;13.25
42119;BMP280;27783;42.782;23.274;2023-03-07T16:40:50;94475.31;;;13.18
42119;BMP280;27783;42.782;23.274;2023-03-07T16:43:31;94495.97;;;13.23
42119;BMP280;27783;42.782;23.274;2023-03-07T16:46:00;94491.19;;;13.18
42119;BMP280;27783;42.782;23.274;2023-03-07T16:48:28;94494.47;;;13.10
42119;BMP280;27783;42.782;23.274;2023-03-07T16:50:55;94492.72;;;13.04
42119;BMP280;27783;42.782;23.274;2023-03-07T16:53:21;94496.31;;;12.98
42119;BMP280;27783;42.782;23.274;2023-03-07T16:55:47;94494.94;;;12.93
42119;BMP280;27783;42.782;23.274;2023-03-07T16:58:24;94504.50;;;13.03
42119;BMP280;27783;42.782;23.274;2023-03-07T17:00:53;94504.34;;;12.94
42119;BMP280;27783;42.782;23.274;2023-03-07T17:03:20;94498.22;;;12.97
42119;BMP280;27783;42.782;23.274;2023-03-07T17:05:47;94498.94;;;12.85
42119;BMP280;27783;42.782;23.274;2023-03-07T17:08:13;94502.41;;;12.83
42119;BMP280;27783;42.782;23.274;2023-03-07T17:10:40;94500.91;;;12.69
42119;BMP280;27783;42.782;23.274;2023-03-07T17:13:10;94505.97;;;12.64
42119;BMP280;27783;42.782;23.274;2023-03-07T17:15:40;94500.03;;;12.60
42119;BMP280;27783;42.782;23.274;2023-03-07T17:18:05;94503.75;;;12.47
42119;BMP280;27783;42.782;23.274;2023-03-07T17:20:39;94500.00;;;12.45
42119;BMP280;27783;42.782;23.274;2023-03-07T17:23:05;94504.97;;;12.43
42119;BMP280;27783;42.782;23.274;2023-03-07T17:25:30;94507.50;;;12.34
42119;BMP280;27783;42.782;23.274;2023-03-07T17:28:02;94507.88;;;12.32
42119;BMP280;27783;42.782;23.274;2023-03-07T17:30:30;94506.41;;;12.32
42119;BMP280;27783;42.782;23.274;2023-03-07T17:32:56;94510.53;;;12.32
42119;BMP280;27783;42.782;23.274;2023-03-07T17:35:22;94507.25;;;12.13
42119;BMP280;27783;42.782;23.274;2023-03-07T17:37:50;94509.84;;;12.01
42119;BMP280;27783;42.782;23.274;2023-03-07T17:40:17;94500.09;;;11.98
42119;BMP280;27783;42.782;23.274;2023-03-07T17:42:43;94514.63;;;11.90
42119;BMP280;27783;42.782;23.274;2023-03-07T17:45:11;94518.25;;;11.81
42119;BMP280;27783;42.782;23.274;2023-03-07T17:47:39;94512.81;;;11.72
42119;BMP280;27783;42.782;23.274;2023-03-07T17:50:05;94519.88;;;11.59
42119;BMP280;27783;42.782;23.274;2023-03-07T17:52:32;94520.03;;;11.52
42119;BMP280;27783;42.782;23.274;2023-03-07T17:55:00;94521.41;;;11.41